sensor_id;sensor_type;location;lat;lon;timestamp;P1;durP1;ratioP1;P2;durP2;ratioP2
21681;SDS011;11002;48.256;10.084;2023-02-15T00:00:21;203.02;;;18.00;;
21681;SDS011;11002;48.256;10.084;2023-02-15T00:02:48;73.03;;;14.75;;
21681;SDS011;11002;48.256;10.084;2023-02-15T00:05:15;179.70;;;17.02;;
21681;SDS011;11002;48.256;10.084;2023-02-15T00:07:43;51.10;;;15.02;;
21681;SDS011;11002;48.256;10.084;2023-02-15T00:10:10;136.80;;;17.17;;
21681;SDS011;11002;48.256;10.084;2023-02-15T00:12:37;206.68;;;18.30;;
21681;SDS011;11002;48.256;10.084;2023-02-15T00:15:05;134.23;;;15.88;;
21681;SDS011;11002;48.256;10.084;2023-02-15T00:17:34;164.20;;;16.83;;
21681;SDS011;11002;48.256;10.084;2023-02-15T00:20:01;59.10;;;13.95;;
21681;SDS011;11002;48.256;10.084;2023-02-15T00:22:28;129.95;;;15.88;;
21681;SDS011;11002;48.256;10.084;2023-02-15T00:24:56;34.53;;;13.85;;
21681;SDS011;11002;48.256;10.084;2023-02-15T00:27:23;106.20;;;16.02;;
21681;SDS011;11002;48.256;10.084;2023-02-15T00:29:50;84.43;;;14.80;;
21681;SDS011;11002;48.256;10.084;2023-02-15T00:32:18;36.72;;;12.95;;
21681;SDS011;11002;48.256;10.084;2023-02-15T00:34:47;78.80;;;13.73;;
21681;SDS011;11002;48.256;10.084;2023-02-15T00:37:15;27.75;;;12.63;;
21681;SDS011;11002;48.256;10.084;2023-02-15T00:39:46;91.00;;;14.57;;
21681;SDS011;11002;48.256;10.084;2023-02-15T00:42:13;51.80;;;12.55;;
21681;SDS011;11002;48.256;10.084;2023-02-15T00:44:40;32.78;;;13.15;;
21681;SDS011;11002;48.256;10.084;2023-02-15T00:47:08;183.88;;;18.45;;
21681;SDS011;11002;48.256;10.084;2023-02-15T00:49:35;124.68;;;14.07;;
21681;SDS011;11002;48.256;10.084;2023-02-15T00:52:04;110.10;;;14.27;;
21681;SDS011;11002;48.256;10.084;2023-02-15T00:54:31;190.10;;;17.17;;
21681;SDS011;11002;48.256;10.084;2023-02-15T00:56:59;46.08;;;13.93;;
21681;SDS011;11002;48.256;10.084;2023-02-15T00:59:27;221.13;;;17.08;;
21681;SDS011;11002;48.256;10.084;2023-02-15T01:01:54;67.10;;;13.43;;
21681;SDS011;11002;48.256;10.084;2023-02-15T01:04:21;179.13;;;20.35;;
21681;SDS011;11002;48.256;10.084;2023-02-15T01:06:49;90.45;;;14.02;;
21681;SDS011;11002;48.256;10.084;2023-02-15T01:09:17;252.85;;;17.40;;
21681;SDS011;11002;48.256;10.084;2023-02-15T01:11:45;63.20;;;13.27;;
21681;SDS011;11002;48.256;10.084;2023-02-15T01:14:12;160.05;;;16.67;;
21681;SDS011;11002;48.256;10.084;2023-02-15T01:16:40;77.00;;;13.88;;
21681;SDS011;11002;48.256;10.084;2023-02-15T01:19:08;138.38;;;16.02;;
21681;SDS011;11002;48.256;10.084;2023-02-15T01:21:35;123.40;;;13.20;;
21681;SDS011;11002;48.256;10.084;2023-02-15T01:24:02;110.82;;;15.25;;
21681;SDS011;11002;48.256;10.084;2023-02-15T01:26:31;137.38;;;14.98;;
21681;SDS011;11002;48.256;10.084;2023-02-15T01:28:59;177.82;;;16.45;;
21681;SDS011;11002;48.256;10.084;2023-02-15T01:31:26;117.75;;;14.38;;
21681;SDS011;11002;48.256;10.084;2023-02-15T01:33:53;43.97;;;12.77;;
21681;SDS011;11002;48.256;10.084;2023-02-15T01:36:20;96.90;;;13.10;;
21681;SDS011;11002;48.256;10.084;2023-02-15T01:38:48;108.72;;;13.93;;
21681;SDS011;11002;48.256;10.084;2023-02-15T01:41:15;48.83;;;13.20;;
21681;SDS011;11002;48.256;10.084;2023-02-15T01:43:55;159.43;;;15.10;;
21681;SDS011;11002;48.256;10.084;2023-02-15T01:46:25;307.45;;;17.98;;
21681;SDS011;11002;48.256;10.084;2023-02-15T01:48:56;228.25;;;18.15;;
21681;SDS011;11002;48.256;10.084;2023-02-15T01:51:30;140.93;;;14.63;;
21681;SDS011;11002;48.256;10.084;2023-02-15T01:54:02;101.22;;;14.52;;
21681;SDS011;11002;48.256;10.084;2023-02-15T01:56:35;46.70;;;12.30;;
21681;SDS011;11002;48.256;10.084;2023-02-15T01:59:06;83.15;;;12.85;;
21681;SDS011;11002;48.256;10.084;2023-02-15T02:01:38;124.28;;;13.98;;
21681;SDS011;11002;48.256;10.084;2023-02-15T02:04:10;103.13;;;13.73;;
21681;SDS011;11002;48.256;10.084;2023-02-15T02:06:42;260.90;;;17.48;;
21681;SDS011;11002;48.256;10.084;2023-02-15T02:09:13;349.65;;;18.95;;
21681;SDS011;11002;48.256;10.084;2023-02-15T02:11:40;207.02;;;15.77;;
21681;SDS011;11002;48.256;10.084;2023-02-15T02:14:13;164.85;;;14.88;;
21681;SDS011;11002;48.256;10.084;2023-02-15T02:16:42;120.88;;;12.30;;
21681;SDS011;11002;48.256;10.084;2023-02-15T02:25:27;83.32;;;11.50;;
21681;SDS011;11002;48.256;10.084;2023-02-15T02:28:20;146.00;;;14.57;;
21681;SDS011;11002;48.256;10.084;2023-02-15T02:31:20;226.73;;;15.52;;
21681;SDS011;11002;48.256;10.084;2023-02-15T02:34:06;199.50;;;15.65;;
21681;SDS011;11002;48.256;10.084;2023-02-15T02:36:40;95.78;;;12.23;;
21681;SDS011;11002;48.256;10.084;2023-02-15T02:39:20;109.00;;;12.98;;
21681;SDS011;11002;48.256;10.084;2023-02-15T02:41:57;215.95;;;14.93;;
21681;SDS011;11002;48.256;10.084;2023-02-15T02:44:29;181.32;;;14.95;;
21681;SDS011;11002;48.256;10.084;2023-02-15T02:47:02;179.82;;;15.32;;
21681;SDS011;11002;48.256;10.084;2023-02-15T02:49:38;190.75;;;15.60;;
21681;SDS011;11002;48.256;10.084;2023-02-15T02:52:31;166.93;;;14.65;;
21681;SDS011;11002;48.256;10.084;2023-02-15T02:55:05;160.82;;;15.13;;
21681;SDS011;11002;48.256;10.084;2023-02-15T02:57:37;122.38;;;13.27;;
21681;SDS011;11002;48.256;10.084;2023-02-15T03:00:09;251.45;;;16.38;;
21681;SDS011;11002;48.256;10.084;2023-02-15T03:02:38;60.17;;;11.30;;
21681;SDS011;11002;48.256;10.084;2023-02-15T03:05:13;92.22;;;11.50;;
21681;SDS011;11002;48.256;10.084;2023-02-15T03:07:43;93.78;;;11.57;;
21681;SDS011;11002;48.256;10.084;2023-02-15T03:10:15;97.97;;;12.40;;
21681;SDS011;11002;48.256;10.084;2023-02-15T03:12:49;120.57;;;11.63;;
21681;SDS011;11002;48.256;10.084;2023-02-15T03:15:18;79.05;;;10.85;;
21681;SDS011;11002;48.256;10.084;2023-02-15T03:17:49;71.40;;;11.43;;
21681;SDS011;11002;48.256;10.084;2023-02-15T03:20:24;118.97;;;11.10;;
21681;SDS011;11002;48.256;10.084;2023-02-15T03:22:54;109.70;;;11.98;;
21681;SDS011;11002;48.256;10.084;2023-02-15T03:25:26;133.23;;;11.25;;
21681;SDS011;11002;48.256;10.084;2023-02-15T03:27:59;123.10;;;11.65;;
21681;SDS011;11002;48.256;10.084;2023-02-15T03:30:29;97.78;;;10.65;;
21681;SDS011;11002;48.256;10.084;2023-02-15T03:32:59;64.40;;;10.20;;
21681;SDS011;11002;48.256;10.084;2023-02-15T03:35:30;125.15;;;13.02;;
21681;SDS011;11002;48.256;10.084;2023-02-15T03:38:02;100.97;;;11.00;;
21681;SDS011;11002;48.256;10.084;2023-02-15T03:40:34;90.47;;;11.70;;
21681;SDS011;11002;48.256;10.084;2023-02-15T03:43:22;53.72;;;14.45;;
21681;SDS011;11002;48.256;10.084;2023-02-15T03:45:55;79.57;;;11.43;;
21681;SDS011;11002;48.256;10.084;2023-02-15T03:48:27;59.35;;;11.30;;
21681;SDS011;11002;48.256;10.084;2023-02-15T03:51:00;62.65;;;12.05;;
21681;SDS011;11002;48.256;10.084;2023-02-15T03:53:47;104.45;;;14.07;;
21681;SDS011;11002;48.256;10.084;2023-02-15T03:56:17;81.50;;;11.40;;
21681;SDS011;11002;48.256;10.084;2023-02-15T03:58:44;28.45;;;10.98;;
21681;SDS011;11002;48.256;10.084;2023-02-15T04:01:32;44.47;;;10.77;;
21681;SDS011;11002;48.256;10.084;2023-02-15T04:04:23;32.95;;;10.43;;
21681;SDS011;11002;48.256;10.084;2023-02-15T04:06:56;83.70;;;12.10;;
21681;SDS011;11002;48.256;10.084;2023-02-15T04:09:23;56.47;;;11.30;;
21681;SDS011;11002;48.256;10.084;2023-02-15T04:12:08;149.63;;;13.43;;
21681;SDS011;11002;48.256;10.084;2023-02-15T04:14:35;200.45;;;14.57;;
21681;SDS011;11002;48.256;10.084;2023-02-15T04:17:20;72.00;;;11.50;;
21681;SDS011;11002;48.256;10.084;2023-02-15T04:19:47;154.38;;;13.10;;
21681;SDS011;11002;48.256;10.084;2023-02-15T04:22:33;89.72;;;12.85;;
21681;SDS011;11002;48.256;10.084;2023-02-15T04:25:18;123.78;;;12.63;;
21681;SDS011;11002;48.256;10.084;2023-02-15T04:27:47;146.00;;;13.32;;
21681;SDS011;11002;48.256;10.084;2023-02-15T04:30:15;33.00;;;9.98;;
21681;SDS011;11002;48.256;10.084;2023-02-15T04:32:44;75.75;;;11.50;;
21681;SDS011;11002;48.256;10.084;2023-02-15T04:35:12;180.98;;;13.70;;
21681;SDS011;11002;48.256;10.084;2023-02-15T04:37:41;146.02;;;14.32;;
21681;SDS011;11002;48.256;10.084;2023-02-15T04:40:09;201.52;;;15.15;;
21681;SDS011;11002;48.256;10.084;2023-02-15T04:42:38;94.28;;;12.02;;
21681;SDS011;11002;48.256;10.084;2023-02-15T04:45:06;62.45;;;11.35;;
21681;SDS011;11002;48.256;10.084;2023-02-15T04:47:33;77.40;;;12.32;;
21681;SDS011;11002;48.256;10.084;2023-02-15T04:50:01;111.00;;;14.38;;
21681;SDS011;11002;48.256;10.084;2023-02-15T04:52:29;90.60;;;12.52;;
21681;SDS011;11002;48.256;10.084;2023-02-15T04:54:58;77.55;;;12.48;;
21681;SDS011;11002;48.256;10.084;2023-02-15T04:57:25;75.85;;;11.60;;
21681;SDS011;11002;48.256;10.084;2023-02-15T04:59:52;64.25;;;12.00;;
21681;SDS011;11002;48.256;10.084;2023-02-15T05:02:20;42.45;;;11.30;;
21681;SDS011;11002;48.256;10.084;2023-02-15T05:04:47;73.90;;;12.32;;
21681;SDS011;11002;48.256;10.084;2023-02-15T05:07:14;54.38;;;11.25;;
21681;SDS011;11002;48.256;10.084;2023-02-15T05:09:41;65.32;;;11.48;;
21681;SDS011;11002;48.256;10.084;2023-02-15T05:12:10;100.40;;;12.77;;
21681;SDS011;11002;48.256;10.084;2023-02-15T05:14:37;86.65;;;12.93;;
21681;SDS011;11002;48.256;10.084;2023-02-15T05:17:05;62.88;;;11.77;;
21681;SDS011;11002;48.256;10.084;2023-02-15T05:19:32;48.40;;;11.77;;
21681;SDS011;11002;48.256;10.084;2023-02-15T05:21:59;42.00;;;11.13;;
21681;SDS011;11002;48.256;10.084;2023-02-15T05:24:27;58.63;;;11.57;;
21681;SDS011;11002;48.256;10.084;2023-02-15T05:27:24;50.95;;;11.38;;
21681;SDS011;11002;48.256;10.084;2023-02-15T05:30:20;31.27;;;10.80;;
21681;SDS011;11002;48.256;10.084;2023-02-15T05:32:47;51.78;;;12.30;;
21681;SDS011;11002;48.256;10.084;2023-02-15T05:35:15;65.10;;;11.45;;
21681;SDS011;11002;48.256;10.084;2023-02-15T05:37:43;92.68;;;12.90;;
21681;SDS011;11002;48.256;10.084;2023-02-15T05:40:10;132.68;;;13.75;;
21681;SDS011;11002;48.256;10.084;2023-02-15T05:42:39;34.08;;;10.30;;
21681;SDS011;11002;48.256;10.084;2023-02-15T05:45:07;46.85;;;12.15;;
21681;SDS011;11002;48.256;10.084;2023-02-15T05:47:34;63.50;;;12.35;;
21681;SDS011;11002;48.256;10.084;2023-02-15T05:50:02;63.08;;;12.52;;
21681;SDS011;11002;48.256;10.084;2023-02-15T05:52:29;41.78;;;12.45;;
21681;SDS011;11002;48.256;10.084;2023-02-15T05:54:57;65.07;;;12.90;;
21681;SDS011;11002;48.256;10.084;2023-02-15T05:57:25;37.63;;;11.27;;
21681;SDS011;11002;48.256;10.084;2023-02-15T05:59:54;85.72;;;14.05;;
21681;SDS011;11002;48.256;10.084;2023-02-15T06:02:21;91.43;;;14.32;;
21681;SDS011;11002;48.256;10.084;2023-02-15T06:04:48;70.10;;;14.15;;
21681;SDS011;11002;48.256;10.084;2023-02-15T06:07:16;122.13;;;14.75;;
21681;SDS011;11002;48.256;10.084;2023-02-15T06:09:43;103.50;;;13.52;;
21681;SDS011;11002;48.256;10.084;2023-02-15T06:12:10;90.45;;;15.70;;
21681;SDS011;11002;48.256;10.084;2023-02-15T06:14:38;103.57;;;14.60;;
21681;SDS011;11002;48.256;10.084;2023-02-15T06:17:06;57.83;;;13.45;;
21681;SDS011;11002;48.256;10.084;2023-02-15T06:19:33;66.80;;;14.00;;
21681;SDS011;11002;48.256;10.084;2023-02-15T06:22:01;127.20;;;14.55;;
21681;SDS011;11002;48.256;10.084;2023-02-15T06:24:28;64.22;;;14.45;;
21681;SDS011;11002;48.256;10.084;2023-02-15T06:26:55;54.30;;;14.15;;
21681;SDS011;11002;48.256;10.084;2023-02-15T06:29:23;44.72;;;15.20;;
21681;SDS011;11002;48.256;10.084;2023-02-15T06:31:50;69.28;;;15.45;;
21681;SDS011;11002;48.256;10.084;2023-02-15T06:34:21;74.20;;;15.30;;
21681;SDS011;11002;48.256;10.084;2023-02-15T06:36:49;122.40;;;15.95;;
21681;SDS011;11002;48.256;10.084;2023-02-15T06:39:17;40.00;;;15.60;;
21681;SDS011;11002;48.256;10.084;2023-02-15T06:41:44;55.63;;;14.68;;
21681;SDS011;11002;48.256;10.084;2023-02-15T06:44:12;190.95;;;18.35;;
21681;SDS011;11002;48.256;10.084;2023-02-15T06:46:39;63.80;;;14.52;;
21681;SDS011;11002;48.256;10.084;2023-02-15T06:49:06;78.18;;;14.30;;
21681;SDS011;11002;48.256;10.084;2023-02-15T06:51:35;45.58;;;14.73;;
21681;SDS011;11002;48.256;10.084;2023-02-15T06:54:02;43.90;;;14.07;;
21681;SDS011;11002;48.256;10.084;2023-02-15T06:56:30;57.85;;;14.32;;
21681;SDS011;11002;48.256;10.084;2023-02-15T06:58:57;106.55;;;14.82;;
21681;SDS011;11002;48.256;10.084;2023-02-15T07:01:24;71.53;;;14.13;;
21681;SDS011;11002;48.256;10.084;2023-02-15T07:03:52;34.13;;;13.05;;
21681;SDS011;11002;48.256;10.084;2023-02-15T07:06:19;89.20;;;14.07;;
21681;SDS011;11002;48.256;10.084;2023-02-15T07:08:48;126.28;;;15.32;;
21681;SDS011;11002;48.256;10.084;2023-02-15T07:11:15;74.35;;;14.48;;
21681;SDS011;11002;48.256;10.084;2023-02-15T07:13:59;49.45;;;14.55;;
21681;SDS011;11002;48.256;10.084;2023-02-15T07:16:26;33.78;;;13.77;;
21681;SDS011;11002;48.256;10.084;2023-02-15T07:18:54;43.45;;;15.05;;
21681;SDS011;11002;48.256;10.084;2023-02-15T07:21:21;55.20;;;15.30;;
21681;SDS011;11002;48.256;10.084;2023-02-15T07:23:50;56.85;;;14.52;;
21681;SDS011;11002;48.256;10.084;2023-02-15T07:26:17;31.65;;;13.57;;
21681;SDS011;11002;48.256;10.084;2023-02-15T07:28:45;32.67;;;14.10;;
21681;SDS011;11002;48.256;10.084;2023-02-15T07:31:12;39.47;;;13.50;;
21681;SDS011;11002;48.256;10.084;2023-02-15T07:33:40;36.92;;;14.57;;
21681;SDS011;11002;48.256;10.084;2023-02-15T07:36:07;37.70;;;12.55;;
21681;SDS011;11002;48.256;10.084;2023-02-15T07:38:39;40.65;;;12.85;;
21681;SDS011;11002;48.256;10.084;2023-02-15T07:41:09;29.20;;;11.02;;
21681;SDS011;11002;48.256;10.084;2023-02-15T07:43:39;28.85;;;11.43;;
21681;SDS011;11002;48.256;10.084;2023-02-15T07:46:08;24.15;;;11.82;;
21681;SDS011;11002;48.256;10.084;2023-02-15T07:48:37;39.35;;;11.93;;
21681;SDS011;11002;48.256;10.084;2023-02-15T07:51:06;24.02;;;11.23;;
21681;SDS011;11002;48.256;10.084;2023-02-15T07:53:35;26.30;;;11.23;;
21681;SDS011;11002;48.256;10.084;2023-02-15T07:56:03;48.92;;;13.27;;
21681;SDS011;11002;48.256;10.084;2023-02-15T07:58:33;25.52;;;11.88;;
21681;SDS011;11002;48.256;10.084;2023-02-15T08:01:22;39.60;;;11.77;;
21681;SDS011;11002;48.256;10.084;2023-02-15T08:03:50;22.10;;;11.20;;
21681;SDS011;11002;48.256;10.084;2023-02-15T08:06:18;18.17;;;11.63;;
21681;SDS011;11002;48.256;10.084;2023-02-15T08:08:47;21.48;;;11.65;;
21681;SDS011;11002;48.256;10.084;2023-02-15T08:11:16;22.60;;;12.05;;
21681;SDS011;11002;48.256;10.084;2023-02-15T08:14:01;19.35;;;11.60;;
21681;SDS011;11002;48.256;10.084;2023-02-15T08:16:31;20.77;;;10.93;;
21681;SDS011;11002;48.256;10.084;2023-02-15T08:19:01;16.70;;;10.57;;
21681;SDS011;11002;48.256;10.084;2023-02-15T08:21:30;17.00;;;10.60;;
21681;SDS011;11002;48.256;10.084;2023-02-15T08:23:58;16.98;;;10.32;;
21681;SDS011;11002;48.256;10.084;2023-02-15T08:26:26;27.35;;;10.35;;
21681;SDS011;11002;48.256;10.084;2023-02-15T08:28:54;17.45;;;10.35;;
21681;SDS011;11002;48.256;10.084;2023-02-15T08:31:23;18.33;;;10.13;;
21681;SDS011;11002;48.256;10.084;2023-02-15T08:33:51;22.88;;;11.63;;
21681;SDS011;11002;48.256;10.084;2023-02-15T08:36:20;16.65;;;10.98;;
21681;SDS011;11002;48.256;10.084;2023-02-15T08:38:49;15.20;;;9.77;;
21681;SDS011;11002;48.256;10.084;2023-02-15T08:41:17;15.85;;;10.27;;
21681;SDS011;11002;48.256;10.084;2023-02-15T08:43:46;22.30;;;11.35;;
21681;SDS011;11002;48.256;10.084;2023-02-15T08:46:15;22.52;;;10.93;;
21681;SDS011;11002;48.256;10.084;2023-02-15T08:48:44;21.38;;;10.15;;
21681;SDS011;11002;48.256;10.084;2023-02-15T08:51:12;20.35;;;11.27;;
21681;SDS011;11002;48.256;10.084;2023-02-15T08:53:41;23.73;;;11.23;;
21681;SDS011;11002;48.256;10.084;2023-02-15T08:56:10;19.92;;;10.80;;
21681;SDS011;11002;48.256;10.084;2023-02-15T08:58:38;22.30;;;10.70;;
21681;SDS011;11002;48.256;10.084;2023-02-15T09:01:09;16.30;;;11.38;;
21681;SDS011;11002;48.256;10.084;2023-02-15T09:03:37;15.07;;;10.45;;
21681;SDS011;11002;48.256;10.084;2023-02-15T09:06:06;17.38;;;11.88;;
21681;SDS011;11002;48.256;10.084;2023-02-15T09:08:34;18.92;;;11.90;;
21681;SDS011;11002;48.256;10.084;2023-02-15T09:11:05;19.92;;;11.45;;
21681;SDS011;11002;48.256;10.084;2023-02-15T09:13:34;14.10;;;9.60;;
21681;SDS011;11002;48.256;10.084;2023-02-15T09:16:02;17.67;;;11.40;;
21681;SDS011;11002;48.256;10.084;2023-02-15T09:18:32;21.15;;;11.57;;
21681;SDS011;11002;48.256;10.084;2023-02-15T09:21:09;18.35;;;12.15;;
21681;SDS011;11002;48.256;10.084;2023-02-15T09:23:38;17.33;;;10.77;;
21681;SDS011;11002;48.256;10.084;2023-02-15T09:26:07;20.73;;;11.38;;
21681;SDS011;11002;48.256;10.084;2023-02-15T09:28:36;22.05;;;12.52;;
21681;SDS011;11002;48.256;10.084;2023-02-15T09:31:05;16.67;;;11.70;;
21681;SDS011;11002;48.256;10.084;2023-02-15T09:33:36;17.63;;;11.68;;
21681;SDS011;11002;48.256;10.084;2023-02-15T09:36:05;17.00;;;11.07;;
21681;SDS011;11002;48.256;10.084;2023-02-15T09:38:41;17.52;;;10.50;;
21681;SDS011;11002;48.256;10.084;2023-02-15T09:41:13;17.08;;;11.23;;
21681;SDS011;11002;48.256;10.084;2023-02-15T09:44:07;16.75;;;10.93;;
21681;SDS011;11002;48.256;10.084;2023-02-15T09:46:46;16.08;;;11.02;;
21681;SDS011;11002;48.256;10.084;2023-02-15T09:49:26;17.00;;;11.27;;
21681;SDS011;11002;48.256;10.084;2023-02-15T09:52:10;13.88;;;10.52;;
21681;SDS011;11002;48.256;10.084;2023-02-15T09:54:59;14.95;;;11.43;;
21681;SDS011;11002;48.256;10.084;2023-02-15T09:57:40;16.88;;;11.93;;
21681;SDS011;11002;48.256;10.084;2023-02-15T10:00:14;15.77;;;11.23;;
21681;SDS011;11002;48.256;10.084;2023-02-15T10:05:53;14.38;;;10.43;;
21681;SDS011;11002;48.256;10.084;2023-02-15T10:11:27;17.60;;;11.88;;
21681;SDS011;11002;48.256;10.084;2023-02-15T10:14:21;19.10;;;13.48;;
21681;SDS011;11002;48.256;10.084;2023-02-15T10:19:35;18.65;;;11.85;;
21681;SDS011;11002;48.256;10.084;2023-02-15T10:22:11;18.13;;;12.20;;
21681;SDS011;11002;48.256;10.084;2023-02-15T10:24:55;18.90;;;12.85;;
21681;SDS011;11002;48.256;10.084;2023-02-15T10:27:45;20.08;;;12.38;;
21681;SDS011;11002;48.256;10.084;2023-02-15T10:30:13;18.00;;;11.80;;
21681;SDS011;11002;48.256;10.084;2023-02-15T10:32:44;17.05;;;12.05;;
21681;SDS011;11002;48.256;10.084;2023-02-15T10:35:20;16.48;;;12.02;;
21681;SDS011;11002;48.256;10.084;2023-02-15T10:37:58;14.80;;;11.15;;
21681;SDS011;11002;48.256;10.084;2023-02-15T10:40:39;11.85;;;9.55;;
21681;SDS011;11002;48.256;10.084;2023-02-15T10:43:23;13.85;;;11.13;;
21681;SDS011;11002;48.256;10.084;2023-02-15T10:46:02;14.05;;;10.93;;
21681;SDS011;11002;48.256;10.084;2023-02-15T10:48:41;11.38;;;10.18;;
21681;SDS011;11002;48.256;10.084;2023-02-15T10:51:26;13.23;;;10.73;;
21681;SDS011;11002;48.256;10.084;2023-02-15T10:54:05;12.18;;;10.77;;
21681;SDS011;11002;48.256;10.084;2023-02-15T10:56:43;11.57;;;10.38;;
21681;SDS011;11002;48.256;10.084;2023-02-15T10:59:32;11.73;;;10.45;;
21681;SDS011;11002;48.256;10.084;2023-02-15T11:02:19;11.95;;;10.70;;
21681;SDS011;11002;48.256;10.084;2023-02-15T11:04:53;11.32;;;10.15;;
21681;SDS011;11002;48.256;10.084;2023-02-15T11:07:29;11.00;;;9.90;;
21681;SDS011;11002;48.256;10.084;2023-02-15T11:10:01;12.70;;;11.40;;
21681;SDS011;11002;48.256;10.084;2023-02-15T11:12:33;11.20;;;10.13;;
21681;SDS011;11002;48.256;10.084;2023-02-15T11:15:04;10.95;;;9.95;;
21681;SDS011;11002;48.256;10.084;2023-02-15T11:17:43;11.88;;;10.68;;
21681;SDS011;11002;48.256;10.084;2023-02-15T11:20:17;11.20;;;10.10;;
21681;SDS011;11002;48.256;10.084;2023-02-15T11:22:49;11.23;;;10.23;;
21681;SDS011;11002;48.256;10.084;2023-02-15T11:25:28;11.18;;;10.18;;
21681;SDS011;11002;48.256;10.084;2023-02-15T11:27:57;11.00;;;9.90;;
21681;SDS011;11002;48.256;10.084;2023-02-15T11:30:29;10.18;;;9.23;;
21681;SDS011;11002;48.256;10.084;2023-02-15T11:33:05;11.43;;;10.23;;
21681;SDS011;11002;48.256;10.084;2023-02-15T11:35:46;10.55;;;9.55;;
21681;SDS011;11002;48.256;10.084;2023-02-15T11:38:17;10.98;;;9.88;;
21681;SDS011;11002;48.256;10.084;2023-02-15T11:40:48;11.10;;;10.07;;
21681;SDS011;11002;48.256;10.084;2023-02-15T11:43:17;11.13;;;10.02;;
21681;SDS011;11002;48.256;10.084;2023-02-15T11:45:51;9.80;;;8.80;;
21681;SDS011;11002;48.256;10.084;2023-02-15T11:48:19;10.98;;;9.88;;
21681;SDS011;11002;48.256;10.084;2023-02-15T11:50:47;11.00;;;9.90;;
21681;SDS011;11002;48.256;10.084;2023-02-15T11:53:15;10.02;;;9.02;;
21681;SDS011;11002;48.256;10.084;2023-02-15T11:55:43;10.60;;;9.60;;
21681;SDS011;11002;48.256;10.084;2023-02-15T11:58:15;11.23;;;10.13;;
21681;SDS011;11002;48.256;10.084;2023-02-15T12:00:56;11.18;;;10.00;;
21681;SDS011;11002;48.256;10.084;2023-02-15T12:03:28;11.32;;;10.15;;
21681;SDS011;11002;48.256;10.084;2023-02-15T12:06:03;13.02;;;10.50;;
21681;SDS011;11002;48.256;10.084;2023-02-15T12:08:34;12.10;;;10.90;;
21681;SDS011;11002;48.256;10.084;2023-02-15T12:11:06;11.05;;;9.95;;
21681;SDS011;11002;48.256;10.084;2023-02-15T12:13:46;11.48;;;10.27;;
21681;SDS011;11002;48.256;10.084;2023-02-15T12:16:23;12.40;;;11.02;;
21681;SDS011;11002;48.256;10.084;2023-02-15T12:18:52;12.13;;;10.50;;
21681;SDS011;11002;48.256;10.084;2023-02-15T12:21:25;11.35;;;10.30;;
21681;SDS011;11002;48.256;10.084;2023-02-15T12:23:55;12.43;;;10.98;;
21681;SDS011;11002;48.256;10.084;2023-02-15T12:26:26;11.38;;;10.38;;
21681;SDS011;11002;48.256;10.084;2023-02-15T12:28:55;11.65;;;10.45;;
21681;SDS011;11002;48.256;10.084;2023-02-15T12:31:30;14.07;;;11.75;;
21681;SDS011;11002;48.256;10.084;2023-02-15T12:34:03;13.88;;;12.48;;
21681;SDS011;11002;48.256;10.084;2023-02-15T12:36:42;14.93;;;13.32;;
21681;SDS011;11002;48.256;10.084;2023-02-15T12:39:19;16.40;;;13.67;;
21681;SDS011;11002;48.256;10.084;2023-02-15T12:41:59;17.52;;;15.02;;
21681;SDS011;11002;48.256;10.084;2023-02-15T12:44:29;18.02;;;15.55;;
21681;SDS011;11002;48.256;10.084;2023-02-15T12:47:01;19.85;;;14.88;;
21681;SDS011;11002;48.256;10.084;2023-02-15T12:49:30;20.10;;;16.02;;
21681;SDS011;11002;48.256;10.084;2023-02-15T12:52:02;17.38;;;14.52;;
21681;SDS011;11002;48.256;10.084;2023-02-15T12:54:36;18.15;;;15.40;;
21681;SDS011;11002;48.256;10.084;2023-02-15T12:57:20;19.53;;;14.43;;
21681;SDS011;11002;48.256;10.084;2023-02-15T13:02:24;27.58;;;14.45;;
21681;SDS011;11002;48.256;10.084;2023-02-15T13:04:56;20.42;;;15.10;;
21681;SDS011;11002;48.256;10.084;2023-02-15T13:07:32;21.30;;;15.38;;
21681;SDS011;11002;48.256;10.084;2023-02-15T13:10:00;19.42;;;15.50;;
21681;SDS011;11002;48.256;10.084;2023-02-15T13:12:28;18.98;;;14.82;;
21681;SDS011;11002;48.256;10.084;2023-02-15T13:14:59;20.88;;;15.32;;
21681;SDS011;11002;48.256;10.084;2023-02-15T13:17:29;19.00;;;14.80;;
21681;SDS011;11002;48.256;10.084;2023-02-15T13:20:03;20.80;;;16.33;;
21681;SDS011;11002;48.256;10.084;2023-02-15T13:22:41;19.80;;;16.02;;
21681;SDS011;11002;48.256;10.084;2023-02-15T13:25:14;21.30;;;16.50;;
21681;SDS011;11002;48.256;10.084;2023-02-15T13:27:46;21.05;;;16.23;;
21681;SDS011;11002;48.256;10.084;2023-02-15T13:30:22;26.45;;;17.25;;
21681;SDS011;11002;48.256;10.084;2023-02-15T13:32:56;23.00;;;17.08;;
21681;SDS011;11002;48.256;10.084;2023-02-15T13:35:27;21.38;;;16.02;;
21681;SDS011;11002;48.256;10.084;2023-02-15T13:38:06;22.55;;;16.00;;
21681;SDS011;11002;48.256;10.084;2023-02-15T13:40:42;22.02;;;16.13;;
21681;SDS011;11002;48.256;10.084;2023-02-15T13:43:19;23.65;;;16.45;;
21681;SDS011;11002;48.256;10.084;2023-02-15T13:45:58;23.20;;;16.30;;
21681;SDS011;11002;48.256;10.084;2023-02-15T13:48:38;20.58;;;14.38;;
21681;SDS011;11002;48.256;10.084;2023-02-15T13:51:13;20.33;;;14.73;;
21681;SDS011;11002;48.256;10.084;2023-02-15T13:56:48;21.40;;;16.02;;
21681;SDS011;11002;48.256;10.084;2023-02-15T14:02:42;20.80;;;15.70;;
21681;SDS011;11002;48.256;10.084;2023-02-15T14:05:31;19.92;;;15.18;;
21681;SDS011;11002;48.256;10.084;2023-02-15T14:08:08;20.58;;;15.50;;
21681;SDS011;11002;48.256;10.084;2023-02-15T14:10:44;18.92;;;14.77;;
21681;SDS011;11002;48.256;10.084;2023-02-15T14:16:20;20.52;;;15.38;;
21681;SDS011;11002;48.256;10.084;2023-02-15T14:19:01;20.15;;;15.35;;
21681;SDS011;11002;48.256;10.084;2023-02-15T14:21:34;20.58;;;15.73;;
21681;SDS011;11002;48.256;10.084;2023-02-15T14:24:11;17.73;;;15.18;;
21681;SDS011;11002;48.256;10.084;2023-02-15T14:26:49;22.80;;;16.65;;
21681;SDS011;11002;48.256;10.084;2023-02-15T14:31:55;21.00;;;15.10;;
21681;SDS011;11002;48.256;10.084;2023-02-15T14:34:30;26.30;;;17.15;;
21681;SDS011;11002;48.256;10.084;2023-02-15T14:37:04;20.27;;;15.98;;
21681;SDS011;11002;48.256;10.084;2023-02-15T14:39:34;21.65;;;14.68;;
21681;SDS011;11002;48.256;10.084;2023-02-15T14:42:28;21.77;;;15.55;;
21681;SDS011;11002;48.256;10.084;2023-02-15T14:45:01;22.33;;;15.35;;
21681;SDS011;11002;48.256;10.084;2023-02-15T14:47:39;24.13;;;17.33;;
21681;SDS011;11002;48.256;10.084;2023-02-15T14:56:14;22.27;;;16.65;;
21681;SDS011;11002;48.256;10.084;2023-02-15T15:01:54;23.35;;;16.25;;
21681;SDS011;11002;48.256;10.084;2023-02-15T15:04:30;24.02;;;16.80;;
21681;SDS011;11002;48.256;10.084;2023-02-15T15:07:01;28.30;;;16.60;;
21681;SDS011;11002;48.256;10.084;2023-02-15T15:09:38;25.35;;;17.40;;
21681;SDS011;11002;48.256;10.084;2023-02-15T15:12:14;22.90;;;16.95;;